Time;durP1;ratioP1;P1;durP2;ratioP2;P2;SDS_P1;SDS_P2;PMS_P1;PMS_P2;Temp;Humidity;BMP_temperature;BMP_pressure;BME280_temperature;BME280_humidity;BME280_pressure;Samples;Min_cycle;Max_cycle;Signal;HPM_P1;HPM_P2
2022/07/02 00:04:25;;;;;;;;;;;;;;;;;;10493012;28;19924;-63
2022/07/02 00:09:27;;;;;;;;;;;;;;;;;;10499825;28;19932;-63
2022/07/02 00:14:29;;;;;;;;;;;;;;;;;;10499434;28;19928;-63
2022/07/02 00:19:32;;;;;;;;;;;;;;;;;;10498898;28;20375;-63
2022/07/02 00:24:39;;;;;;;;;;;;;;;;;;10498717;28;20287;-63
2022/07/02 00:29:42;;;;;;;;;;;;;;;;;;10477616;28;19924;-63
2022/07/02 00:34:44;;;;;;;;;;;;;;;;;;10457700;28;19925;-63
2022/07/02 00:39:46;;;;;;;;;;;;;;;;;;10456719;28;19931;-62
2022/07/02 00:44:48;;;;;;;;;;;;;;;;;;10457351;28;19925;-63
2022/07/02 00:49:50;;;;;;;;;;;;;;;;;;10457359;28;19925;-63
2022/07/02 00:54:52;;;;;;;;;;;;;;;;;;10465187;28;20387;-63
2022/07/02 00:59:54;;;;;;;;;;;;;;;;;;10498618;28;19924;-63
2022/07/02 01:04:56;;;;;;;;;;;;;;;;;;10498493;28;19932;-63
2022/07/02 01:10:17;;;;;;;;;;;;;;;;;;10497505;28;20308;-62
2022/07/02 01:15:19;;;;;;;;;;;;;;;;;;10495953;28;20437;-63
2022/07/02 01:20:21;;;;;;;;;;;;;;;;;;10498128;28;19932;-63
2022/07/02 01:25:23;;;;;;;;;;;;;;;;;;10467712;28;20359;-63
2022/07/02 01:30:25;;;;;;;;;;;;;;;;;;10455766;28;19947;-63
2022/07/02 01:35:27;;;;;;;;;;;;;;;;;;10456446;28;19925;-63
2022/07/02 01:40:29;;;;;;;;;;;;;;;;;;10456914;28;19929;-63
2022/07/02 01:45:31;;;;;;;;;;;;;;;;;;10455593;28;20371;-63
2022/07/02 01:50:34;;;;;;;;;;;;;;;;;;10456739;28;19925;-63
2022/07/02 01:55:36;;;;;;;;;;;;;;;;;;10461146;28;19932;-63
2022/07/02 02:00:38;;;;;;;;;;;;;;;;;;10463611;28;19925;-63
2022/07/02 02:05:40;;;;;;;;;;;;;;;;;;10463251;28;20335;-63
2022/07/02 02:10:42;;;;;;;;;;;;;;;;;;10463062;28;20295;-63
2022/07/02 02:15:44;;;;;;;;;;;;;;;;;;10462977;28;19925;-63
2022/07/02 02:20:47;;;;;;;;;;;;;;;;;;10474688;28;19931;-63
2022/07/02 02:25:49;;;;;;;;;;;;;;;;;;10503368;28;20280;-63
2022/07/02 02:30:51;;;;;;;;;;;;;;;;;;10503104;28;19924;-63
2022/07/02 02:35:53;;;;;;;;;;;;;;;;;;10504153;28;19932;-63
2022/07/02 02:40:55;;;;;;;;;;;;;;;;;;10503469;28;20294;-63
2022/07/02 02:45:57;;;;;;;;;;;;;;;;;;10478116;22;19947;-62
2022/07/02 02:50:59;;;;;;;;;;;;;;;;;;10461514;28;19925;-62
2022/07/02 02:56:01;;;;;;;;;;;;;;;;;;10460388;28;20588;-62
2022/07/02 03:01:04;;;;;;;;;;;;;;;;;;10461535;28;19932;-62
2022/07/02 03:06:06;;;;;;;;;;;;;;;;;;10460768;28;19925;-62
2022/07/02 03:11:08;;;;;;;;;;;;;;;;;;10460837;28;19925;-62
2022/07/02 03:16:10;;;;;;;;;;;;;;;;;;10460096;28;20383;-62
2022/07/02 03:21:12;;;;;;;;;;;;;;;;;;10460363;28;19925;-62
2022/07/02 03:26:14;;;;;;;;;;;;;;;;;;10459670;28;20264;-62
2022/07/02 03:31:17;;;;;;;;;;;;;;;;;;10459990;28;19925;-62
2022/07/02 03:36:19;;;;;;;;;;;;;;;;;;10459923;28;19931;-62
2022/07/02 03:41:21;;;;;;;;;;;;;;;;;;10475141;28;19928;-62
2022/07/02 03:46:23;;;;;;;;;;;;;;;;;;10458974;28;19925;-62
2022/07/02 03:51:25;;;;;;;;;;;;;;;;;;10459100;28;19932;-62
2022/07/02 03:56:28;;;;;;;;;;;;;;;;;;10459203;28;19932;-62
2022/07/02 04:01:30;;;;;;;;;;;;;;;;;;10458890;28;19924;-62
2022/07/02 04:06:32;;;;;;;;;;;;;;;;;;10458568;28;19955;-62
2022/07/02 04:11:35;;;;;;;;;;;;;;;;;;10458354;28;19925;-62
2022/07/02 04:16:37;;;;;;;;;;;;;;;;;;10456771;28;19931;-62
2022/07/02 04:21:39;;;;;;;;;;;;;;;;;;10458048;28;19925;-62
2022/07/02 04:26:41;;;;;;;;;;;;;;;;;;10457996;28;19943;-62
2022/07/02 04:31:43;;;;;;;;;;;;;;;;;;10457879;28;19925;-62
2022/07/02 04:36:45;;;;;;;;;;;;;;;;;;10456988;28;20299;-62
2022/07/02 04:41:51;;;;;;;;;;;;;;;;;;10458287;28;19935;-62
2022/07/02 04:46:53;;;;;;;;;;;;;;;;;;10456256;28;19924;-62
2022/07/02 04:51:55;;;;;;;;;;;;;;;;;;10457452;28;19924;-62
2022/07/02 04:56:57;;;;;;;;;;;;;;;;;;10457128;28;19939;-63
2022/07/02 05:01:59;;;;;;;;;;;;;;;;;;10457199;28;19931;-62
2022/07/02 05:07:02;;;;;;;;;;;;;;;;;;10457079;28;19935;-62
2022/07/02 05:12:04;;;;;;;;;;;;;;;;;;10456096;28;20276;-62
2022/07/02 05:17:06;;;;;;;;;;;;;;;;;;10456287;28;19948;-63
2022/07/02 05:22:08;;;;;;;;;;;;;;;;;;10456180;28;19925;-63
2022/07/02 05:27:10;;;;;;;;;;;;;;;;;;10458589;28;19932;-62
2022/07/02 05:32:12;;;;;;;;;;;;;;;;;;10464140;28;19951;-63
2022/07/02 05:37:14;;;;;;;;;;;;;;;;;;10463965;28;19925;-63
2022/07/02 05:42:16;;;;;;;;;;;;;;;;;;10464282;28;19925;-63
2022/07/02 05:47:18;;;;;;;;;;;;;;;;;;10463593;28;20398;-62
2022/07/02 05:52:20;;;;;;;;;;;;;;;;;;10463352;28;19995;-62
2022/07/02 05:57:22;;;;;;;;;;;;;;;;;;10463663;28;19929;-63
2022/07/02 06:02:24;;;;;;;;;;;;;;;;;;10464199;28;19925;-62
2022/07/02 06:07:39;;;;;;;;;;;;;;;;;;10463166;28;19982;-63
2022/07/02 06:12:41;;;;;;;;;;;;;;;;;;10463220;28;19931;-63
2022/07/02 06:17:43;;;;;;;;;;;;;;;;;;10461916;28;19929;-61
2022/07/02 06:22:45;;;;;;;;;;;;;;;;;;10461942;28;19947;-62
2022/07/02 06:27:50;;;;;;;;;;;;;;;;;;10461891;28;19932;-71
2022/07/02 06:32:52;;;;;;;;;;;;;;;;;;10462444;28;19929;-71
2022/07/02 06:37:54;;;;;;;;;;;;;;;;;;10460750;28;19935;-71
2022/07/02 06:42:56;;;;;;;;;;;;;;;;;;10461356;28;20318;-71
2022/07/02 06:47:58;;;;;;;;;;;;;;;;;;10460659;28;19932;-71
2022/07/02 06:53:00;;;;;;;;;;;;;;;;;;10461700;28;19924;-71
2022/07/02 06:58:02;;;;;;;;;;;;;;;;;;10460826;28;19929;-71
2022/07/02 07:03:05;;;;;;;;;;;;;;;;;;10461430;28;19924;-71
2022/07/02 07:08:07;;;;;;;;;;;;;;;;;;10459231;28;20011;-71
2022/07/02 07:13:09;;;;;;;;;;;;;;;;;;10460332;28;19924;-71
2022/07/02 07:18:11;;;;;;;;;;;;;;;;;;10460574;28;20386;-71
2022/07/02 07:23:13;;;;;;;;;;;;;;;;;;10459340;28;20288;-71
2022/07/02 07:28:15;;;;;;;;;;;;;;;;;;10459916;28;19925;-70
2022/07/02 07:33:17;;;;;;;;;;;;;;;;;;10459878;28;19925;-71
2022/07/02 07:38:20;;;;;;;;;;;;;;;;;;10459083;28;20365;-72
2022/07/02 07:43:22;;;;;;;;;;;;;;;;;;10459384;28;19925;-71
2022/07/02 07:48:28;;;;;;;;;;;;;;;;;;10458790;28;19924;-71
2022/07/02 07:53:30;;;;;;;;;;;;;;;;;;10458970;28;19932;-72
2022/07/02 07:58:34;;;;;;;;;;;;;;;;;;10458078;28;19932;-72
2022/07/02 08:03:36;;;;;;;;;;;;;;;;;;10458280;28;19925;-71
2022/07/02 08:08:38;;;;;;;;;;;;;;;;;;10457982;28;19925;-71
2022/07/02 08:13:40;;;;;;;;;;;;;;;;;;10457771;28;19948;-72
2022/07/02 08:18:42;;;;;;;;;;;;;;;;;;10458623;28;20384;-72
2022/07/02 08:23:45;;;;;;;;;;;;;;;;;;10457550;28;20364;-72
2022/07/02 08:28:47;;;;;;;;;;;;;;;;;;10457420;28;20284;-72
2022/07/02 08:33:49;;;;;;;;;;;;;;;;;;10473403;28;19940;-72
2022/07/02 08:38:51;;;;;;;;;;;;;;;;;;10457161;28;19925;-72
2022/07/02 08:43:53;;;;;;;;;;;;;;;;;;10456856;28;19930;-71
2022/07/02 08:48:55;;;;;;;;;;;;;;;;;;10456573;28;20485;-72
2022/07/02 08:53:57;;;;;;;;;;;;;;;;;;10455533;28;19929;-72
2022/07/02 08:59:00;;;;;;;;;;;;;;;;;;10457264;28;19925;-74
2022/07/02 09:04:02;;;;;;;;;;;;;;;;;;10466000;28;20376;-72
2022/07/02 09:09:04;;;;;;;;;;;;;;;;;;10470559;28;20011;-74
2022/07/02 09:14:06;;;;;;;;;;;;;;;;;;10470479;28;19924;-72
2022/07/02 09:19:08;;;;;;;;;;;;;;;;;;10470510;28;19925;-72
2022/07/02 09:24:10;;;;;;;;;;;;;;;;;;10469887;28;20368;-73
2022/07/02 09:29:13;;;;;;;;;;;;;;;;;;10469866;28;20291;-73
2022/07/02 09:34:15;;;;;;;;;;;;;;;;;;10469437;28;19924;-73
2022/07/02 09:39:17;;;;;;;;;;;;;;;;;;10470381;28;19924;-72
2022/07/02 09:44:19;;;;;;;;;;;;;;;;;;10469578;28;19931;-74
2022/07/02 09:49:21;;;;;;;;;;;;;;;;;;10470187;28;19925;-72
2022/07/02 09:54:23;;;;;;;;;;;;;;;;;;10469347;28;20287;-72
2022/07/02 09:59:25;;;;;;;;;;;;;;;;;;10469286;28;20272;-72
2022/07/02 10:04:27;;;;;;;;;;;;;;;;;;10468594;28;19931;-72
2022/07/02 10:09:29;;;;;;;;;;;;;;;;;;10468912;28;19925;-72
2022/07/02 10:14:31;;;;;;;;;;;;;;;;;;10464673;28;19931;-72
2022/07/02 10:19:33;;;;;;;;;;;;;;;;;;10462420;28;20272;-72
2022/07/02 10:24:36;;;;;;;;;;;;;;;;;;10462769;28;19925;-72
2022/07/02 10:29:39;;;;;;;;;;;;;;;;;;10462261;28;19932;-72
2022/07/02 10:34:42;;;;;;;;;;;;;;;;;;10462448;28;19924;-72
2022/07/02 10:39:44;;;;;;;;;;;;;;;;;;10460299;28;19972;-72
2022/07/02 10:44:47;;;;;;;;;;;;;;;;;;10457747;28;20310;-72
2022/07/02 10:49:49;;;;;;;;;;;;;;;;;;10461157;28;19925;-72
2022/07/02 10:54:58;;;;;;;;;;;;;;;;;;10461173;28;19968;-72
2022/07/02 11:00:02;;;;;;;;;;;;;;;;;;10461507;28;19932;-72
2022/07/02 11:05:04;;;;;;;;;;;;;;;;;;10461208;28;19928;-72
2022/07/02 11:10:07;;;;;;;;;;;;;;;;;;10461241;28;19932;-72
2022/07/02 11:15:09;;;;;;;;;;;;;;;;;;10460890;28;19925;-72
2022/07/02 11:20:20;;;;;;;;;;;;;;;;;;10460692;28;19979;-73
2022/07/02 11:25:22;;;;;;;;;;;;;;;;;;10459986;28;19924;-71
2022/07/02 11:30:24;;;;;;;;;;;;;;;;;;10459601;28;19924;-72
2022/07/02 11:35:27;;;;;;;;;;;;;;;;;;10460067;28;19932;-71
2022/07/02 11:40:29;;;;;;;;;;;;;;;;;;10459193;28;20276;-72
2022/07/02 11:45:31;;;;;;;;;;;;;;;;;;10459389;28;19999;-72
2022/07/02 11:50:34;;;;;;;;;;;;;;;;;;10459511;28;20100;-72
2022/07/02 11:55:36;;;;;;;;;;;;;;;;;;10459133;28;19925;-73
2022/07/02 12:00:38;;;;;;;;;;;;;;;;;;10459022;28;19925;-72
2022/07/02 12:05:40;;;;;;;;;;;;;;;;;;10458870;28;19925;-73
2022/07/02 12:10:42;;;;;;;;;;;;;;;;;;10455091;28;19959;-73
2022/07/02 12:15:44;;;;;;;;;;;;;;;;;;10415960;28;19934;-72
2022/07/02 12:20:46;;;;;;;;;;;;;;;;;;10410118;28;19929;-71
2022/07/02 12:25:51;;;;;;;;;;;;;;;;;;10409370;28;20423;-72
2022/07/02 12:30:53;;;;;;;;;;;;;;;;;;10409293;28;20314;-71
2022/07/02 12:35:55;;;;;;;;;;;;;;;;;;10409622;28;19929;-72
2022/07/02 12:40:58;;;;;;;;;;;;;;;;;;10409192;28;19936;-72
2022/07/02 12:46:00;;;;;;;;;;;;;;;;;;10408780;28;19930;-72
2022/07/02 12:51:02;;;;;;;;;;;;;;;;;;10409376;28;20104;-72
2022/07/02 12:56:04;;;;;;;;;;;;;;;;;;10408724;28;19933;-71
2022/07/02 13:01:06;;;;;;;;;;;;;;;;;;10408990;28;19929;-71
2022/07/02 13:06:08;;;;;;;;;;;;;;;;;;10408979;28;19930;-71
2022/07/02 13:11:10;;;;;;;;;;;;;;;;;;10408578;28;19967;-71
2022/07/02 13:16:12;;;;;;;;;;;;;;;;;;10408805;28;19929;-71
2022/07/02 13:21:15;;;;;;;;;;;;;;;;;;10408117;28;20745;-71
2022/07/02 13:26:17;;;;;;;;;;;;;;;;;;10408457;28;19940;-71
2022/07/02 13:31:19;;;;;;;;;;;;;;;;;;10408510;28;19932;-72
2022/07/02 13:36:21;;;;;;;;;;;;;;;;;;10408543;28;19991;-71
2022/07/02 13:41:23;;;;;;;;;;;;;;;;;;10407466;28;19932;-71
2022/07/02 13:46:25;;;;;;;;;;;;;;;;;;10407505;28;19929;-71
2022/07/02 13:51:29;;;;;;;;;;;;;;;;;;10415287;28;19929;-71
2022/07/02 13:56:31;;;;;;;;;;;;;;;;;;10416229;28;19929;-71
2022/07/02 14:01:33;;;;;;;;;;;;;;;;;;10471919;28;19929;-71
2022/07/02 14:06:36;;;;;;;;;;;;;;;;;;10471251;28;19929;-71
2022/07/02 14:11:38;;;;;;;;;;;;;;;;;;10455761;28;20439;-71
2022/07/02 14:16:40;;;;;;;;;;;;;;;;;;10455354;28;19951;-71
2022/07/02 14:21:42;;;;;;;;;;;;;;;;;;10456168;28;19933;-71
2022/07/02 14:26:44;;;;;;;;;;;;;;;;;;10455742;28;19933;-71
2022/07/02 14:31:48;;;;;;;;;;;;;;;;;;10459788;28;20276;-71
2022/07/02 14:36:51;;;;;;;;;;;;;;;;;;10462491;28;19987;-71
2022/07/02 14:41:59;;;;;;;;;;;;;;;;;;10462341;28;19925;-70
2022/07/02 14:47:01;;;;;;;;;;;;;;;;;;10461170;28;19925;-71
2022/07/02 14:52:03;;;;;;;;;;;;;;;;;;10476641;28;19925;-70
2022/07/02 14:57:05;;;;;;;;;;;;;;;;;;10467794;22;20283;-70
2022/07/02 15:02:12;;;;;;;;;;;;;;;;;;10460580;28;19931;-70
2022/07/02 15:07:14;;;;;;;;;;;;;;;;;;10461326;28;19925;-70
2022/07/02 15:12:16;;;;;;;;;;;;;;;;;;10461114;28;19936;-70
2022/07/02 15:17:19;;;;;;;;;;;;;;;;;;10460276;28;20295;-70
2022/07/02 15:22:21;;;;;;;;;;;;;;;;;;10476056;28;19925;-70
2022/07/02 15:27:23;;;;;;;;;;;;;;;;;;10460434;28;19932;-70
2022/07/02 15:32:25;;;;;;;;;;;;;;;;;;10459633;28;20276;-71
2022/07/02 15:37:27;;;;;;;;;;;;;;;;;;10460656;28;19928;-71
2022/07/02 15:42:29;;;;;;;;;;;;;;;;;;10459235;28;19925;-70
2022/07/02 15:47:33;;;;;;;;;;;;;;;;;;10459560;28;19924;-70
2022/07/02 15:52:35;;;;;;;;;;;;;;;;;;10459501;28;19925;-70
2022/07/02 15:57:37;;;;;;;;;;;;;;;;;;10459073;28;19931;-70
2022/07/02 16:02:39;;;;;;;;;;;;;;;;;;10459167;28;19943;-70
2022/07/02 16:07:41;;;;;;;;;;;;;;;;;;10459143;28;19929;-70
2022/07/02 16:12:44;;;;;;;;;;;;;;;;;;10457639;28;19924;-70
2022/07/02 16:17:46;;;;;;;;;;;;;;;;;;10457894;28;20386;-70
2022/07/02 16:22:48;;;;;;;;;;;;;;;;;;10458287;28;19936;-70
2022/07/02 16:27:50;;;;;;;;;;;;;;;;;;10473545;28;19925;-71
2022/07/02 16:32:52;;;;;;;;;;;;;;;;;;10457383;28;19924;-70
2022/07/02 16:37:54;;;;;;;;;;;;;;;;;;10457880;28;19932;-70
2022/07/02 16:42:56;;;;;;;;;;;;;;;;;;10457111;28;19925;-70
2022/07/02 16:47:59;;;;;;;;;;;;;;;;;;10456860;28;19924;-71
2022/07/02 16:53:01;;;;;;;;;;;;;;;;;;10456922;28;19925;-70
2022/07/02 16:58:03;;;;;;;;;;;;;;;;;;10456603;28;20363;-70
2022/07/02 17:03:06;;;;;;;;;;;;;;;;;;10456658;28;20279;-70
2022/07/02 17:08:11;;;;;;;;;;;;;;;;;;10456763;28;20380;-70
2022/07/02 17:13:14;;;;;;;;;;;;;;;;;;10456474;28;20379;-70
2022/07/02 17:18:16;;;;;;;;;;;;;;;;;;10472291;28;20015;-70
2022/07/02 17:23:18;;;;;;;;;;;;;;;;;;10459339;28;19928;-70
2022/07/02 17:28:20;;;;;;;;;;;;;;;;;;10479886;28;19925;-70
2022/07/02 17:33:22;;;;;;;;;;;;;;;;;;10423144;28;20020;-70
2022/07/02 17:38:24;;;;;;;;;;;;;;;;;;10422872;28;19925;-70
2022/07/02 17:43:26;;;;;;;;;;;;;;;;;;10422671;28;19948;-70
2022/07/02 17:48:28;;;;;;;;;;;;;;;;;;10422933;28;19929;-65
2022/07/02 17:53:30;;;;;;;;;;;;;;;;;;10422304;28;20368;-65
2022/07/02 17:58:36;;;;;;;;;;;;;;;;;;10428775;28;20295;-65
2022/07/02 18:03:39;;;;;;;;;;;;;;;;;;10463776;28;19929;-65
2022/07/02 18:08:41;;;;;;;;;;;;;;;;;;10462943;28;19931;-65
2022/07/02 18:13:43;;;;;;;;;;;;;;;;;;10473805;28;19931;-65
2022/07/02 18:18:45;;;;;;;;;;;;;;;;;;10463226;28;19925;-65
2022/07/02 18:23:50;;;;;;;;;;;;;;;;;;10462965;28;19931;-65
2022/07/02 18:28:52;;;;;;;;;;;;;;;;;;10441303;28;20373;-65
2022/07/02 18:33:54;;;;;;;;;;;;;;;;;;10420237;28;19925;-65
2022/07/02 18:38:56;;;;;;;;;;;;;;;;;;10421093;28;19925;-65
2022/07/02 18:43:58;;;;;;;;;;;;;;;;;;10421507;28;20295;-65
2022/07/02 18:49:00;;;;;;;;;;;;;;;;;;10420110;28;19925;-65
2022/07/02 18:54:02;;;;;;;;;;;;;;;;;;10419959;28;20273;-65
2022/07/02 18:59:04;;;;;;;;;;;;;;;;;;10421122;28;19925;-65
2022/07/02 19:04:07;;;;;;;;;;;;;;;;;;10420176;28;19931;-65
2022/07/02 19:09:09;;;;;;;;;;;;;;;;;;10427881;28;19929;-65
2022/07/02 19:14:11;;;;;;;;;;;;;;;;;;10460427;28;19929;-65
2022/07/02 19:19:13;;;;;;;;;;;;;;;;;;10460544;28;19931;-65
2022/07/02 19:24:15;;;;;;;;;;;;;;;;;;10460115;28;19971;-64
2022/07/02 19:34:38;;;;;;;;;;;;;;;;;;10459609;28;19932;-64
2022/07/02 19:39:40;;;;;;;;;;;;;;;;;;10458372;28;19932;-64
2022/07/02 19:44:43;;;;;;;;;;;;;;;;;;10459818;28;19925;-64
2022/07/02 19:49:45;;;;;;;;;;;;;;;;;;10459481;28;19925;-64
2022/07/02 19:54:51;;;;;;;;;;;;;;;;;;10457117;28;19931;-64
2022/07/02 19:59:53;;;;;;;;;;;;;;;;;;10458710;28;19925;-64
2022/07/02 20:04:58;;;;;;;;;;;;;;;;;;10456715;28;20082;-64
2022/07/02 20:10:00;;;;;;;;;;;;;;;;;;10458493;28;19931;-64
2022/07/02 20:15:02;;;;;;;;;;;;;;;;;;10458033;28;20277;-64
2022/07/02 20:20:04;;;;;;;;;;;;;;;;;;10457846;28;19925;-64
2022/07/02 20:25:07;;;;;;;;;;;;;;;;;;10456685;28;19933;-64
2022/07/02 20:30:09;;;;;;;;;;;;;;;;;;10457442;28;19936;-64
2022/07/02 20:35:11;;;;;;;;;;;;;;;;;;10456925;28;19929;-64
2022/07/02 20:40:13;;;;;;;;;;;;;;;;;;10457253;28;19925;-64
2022/07/02 20:45:15;;;;;;;;;;;;;;;;;;10457714;28;19925;-64
2022/07/02 20:50:17;;;;;;;;;;;;;;;;;;10445416;28;19925;-64
2022/07/02 20:55:19;;;;;;;;;;;;;;;;;;10416280;28;19929;-64
2022/07/02 21:00:21;;;;;;;;;;;;;;;;;;10414975;28;19929;-64
2022/07/02 21:05:23;;;;;;;;;;;;;;;;;;10454126;28;19940;-64
2022/07/02 21:10:25;;;;;;;;;;;;;;;;;;10414540;28;19925;-64
2022/07/02 21:15:27;;;;;;;;;;;;;;;;;;10414701;28;19925;-64
2022/07/02 21:20:31;;;;;;;;;;;;;;;;;;10415065;28;20380;-64
2022/07/02 21:25:33;;;;;;;;;;;;;;;;;;10415640;28;19925;-64
2022/07/02 21:30:35;;;;;;;;;;;;;;;;;;10437386;28;19925;-64
2022/07/02 21:35:37;;;;;;;;;;;;;;;;;;10456663;28;19924;-64
2022/07/02 21:40:39;;;;;;;;;;;;;;;;;;10456526;28;19928;-64
2022/07/02 21:45:41;;;;;;;;;;;;;;;;;;10456323;28;19925;-64
2022/07/02 21:50:44;;;;;;;;;;;;;;;;;;10456320;28;19979;-64
2022/07/02 21:55:46;;;;;;;;;;;;;;;;;;10455599;28;19924;-64
2022/07/02 22:00:48;;;;;;;;;;;;;;;;;;10415533;28;19925;-64
2022/07/02 22:05:50;;;;;;;;;;;;;;;;;;10414910;28;19983;-64
2022/07/02 22:10:52;;;;;;;;;;;;;;;;;;10420109;28;20288;-64
2022/07/02 22:15:54;;;;;;;;;;;;;;;;;;10462611;28;19947;-64
2022/07/02 22:20:58;;;;;;;;;;;;;;;;;;10463059;28;19968;-64
2022/07/02 22:26:00;;;;;;;;;;;;;;;;;;10445847;28;19929;-64
2022/07/02 22:31:03;;;;;;;;;;;;;;;;;;10421563;28;19925;-64
2022/07/02 22:36:05;;;;;;;;;;;;;;;;;;10421383;28;19932;-64
2022/07/02 22:41:07;;;;;;;;;;;;;;;;;;10421105;28;20284;-64
2022/07/02 22:46:09;;;;;;;;;;;;;;;;;;10428574;28;19983;-64
2022/07/02 22:51:11;;;;;;;;;;;;;;;;;;10477459;28;19983;-64
2022/07/02 22:56:13;;;;;;;;;;;;;;;;;;10426610;28;19979;-64
2022/07/02 23:01:15;;;;;;;;;;;;;;;;;;10420062;28;20285;-64
2022/07/02 23:06:17;;;;;;;;;;;;;;;;;;10419535;28;20439;-64
2022/07/02 23:11:19;;;;;;;;;;;;;;;;;;10456949;28;20415;-64
2022/07/02 23:16:22;;;;;;;;;;;;;;;;;;10460405;28;19924;-64
2022/07/02 23:21:25;;;;;;;;;;;;;;;;;;10447917;28;20343;-64
2022/07/02 23:26:27;;;;;;;;;;;;;;;;;;10418722;28;20405;-64
2022/07/02 23:31:29;;;;;;;;;;;;;;;;;;10419240;28;19925;-64
2022/07/02 23:41:52;;;;;;;;;;;;;;;;;;10418823;28;19925;-63
2022/07/02 23:46:54;;;;;;;;;;;;;;;;;;10418544;28;19925;-63
2022/07/02 23:51:56;;;;;;;;;;;;;;;;;;10450371;28;20023;-63
2022/07/02 23:56:58;;;;;;;;;;;;;;;;;;10458830;28;20291;-64
